Modern Express — H9DG — position and weather

sailwx.info

Track history (hours):
 
Tides and Currents Weather Stations Pressure Air Temp Water Temp Dewpoint Dewpoint Depression Visibility Wind Speed Wind Dir Waves Ship Positions

Modern Express

Last reported at 2015-Jul-30 20:05 UTC. Time now 2015-Aug-02 08:19 UTC.
Position N 27°35' W 014°02'.

Length 164 m; beam 28 m.

Type: Cargo ship. MMSI: 356187000.

Date/timePositionNaut miles runAvg speedWind from/ knotsBaromVisibWave heightAir tempDewpointWater temp
2015-Jul-30 20:05N 27°35' W 014°02'815.3
2015-Jul-30 19:33N 27°42' W 013°57'1615.5
2015-Jul-30 18:33N 27°55' W 013°48'1615.7
2015-Jul-30 17:31N 28°10' W 013°40'1715.8
2015-Jul-30 16:28N 28°24' W 013°31'1516.6
2015-Jul-30 15:33N 28°38' W 013°23'1616.1
2015-Jul-30 14:33N 28°53' W 013°16'1515.2
2015-Jul-30 13:34N 29°06' W 013°09'1515.0
2015-Jul-30 12:33N 29°20' W 013°02'1515.2
2015-Jul-30 11:33N 29°35' W 012°58'1515.0
2015-Jul-30 10:33N 29°50' W 012°54'1714.9
2015-Jul-30 09:27N 30°06' W 012°50'1314.9
2015-Jul-30 08:33N 30°19' W 012°47'4615.4
2015-Jul-30 05:33N 31°03' W 012°31'36615.3
2015-Jul-29 05:33N 36°59' W 010°46'1515.3
2015-Jul-29 04:33N 37°14' W 010°46'1615.3
2015-Jul-29 03:32N 37°30' W 010°46'1515.2
2015-Jul-29 02:33N 37°45' W 010°44'1515.3
2015-Jul-29 01:33N 37°60' W 010°42'1515.0
2015-Jul-29 00:33N 38°15' W 010°41'1515.1
2015-Jul-28 23:33N 38°30' W 010°39'1515.1
2015-Jul-28 22:33N 38°45' W 010°38'1515.0
2015-Jul-28 21:34N 38°60' W 010°37'1515.1
2015-Jul-28 20:33N 39°15' W 010°36'1615.0
2015-Jul-28 19:28N 39°31' W 010°35'1415.1
2015-Jul-28 18:33N 39°45' W 010°34'1615.4
2015-Jul-28 17:32N 40°01' W 010°33'  
2015-Jul-26 08:17N 50°21' W 000°56'4516.3
2015-Jul-26 05:32N 50°33' E 000°12'1515.3
2015-Jul-26 04:33N 50°37' E 000°35'1515.0
2015-Jul-26 03:33N 50°46' E 000°54'1615.6
2015-Jul-26 02:33N 50°56' E 001°12'1717.1
2015-Jul-26 01:33N 51°07' E 001°33'1717.1
2015-Jul-26 00:33N 51°19' E 001°53'1312.5
2015-Jul-25 23:33N 51°21' E 002°12'1515.3
2015-Jul-25 22:33N 51°23' E 002°37'1312.8
2015-Jul-25 21:34N 51°25' E 002°57'1515.2
2015-Jul-25 20:33N 51°25' E 003°22'1212.4
2015-Jul-25 19:34N 51°26' E 003°41'10 9.6
2015-Jul-25 18:33N 51°22' E 003°56'8 7.7
2015-Jul-25 17:33N 51°22' E 004°08'9 9.0
2015-Jul-25 16:33N 51°17' E 004°19'2 1.8
2015-Jul-25 15:33N 51°16' E 004°17'2 2.2
2015-Jul-25 14:32N 51°16' E 004°13'0 0.0
2015-Jul-25 13:32N 51°16' E 004°13'0 0.0
2015-Jul-25 12:32N 51°16' E 004°13'0 0.0
2015-Jul-25 11:32N 51°16' E 004°13'0 0.0
2015-Jul-25 10:32N 51°16' E 004°13'0 0.0
2015-Jul-25 09:32N 51°16' E 004°13'0 0.0
2015-Jul-25 08:32N 51°16' E 004°13'0 0.0
2015-Jul-25 07:32N 51°16' E 004°13'0 0.0
2015-Jul-25 06:32N 51°16' E 004°13'0 0.0
2015-Jul-25 05:29N 51°16' E 004°13'0 0.0
2015-Jul-25 04:32N 51°16' E 004°13'0 0.0
2015-Jul-25 03:32N 51°16' E 004°13'0 0.0
2015-Jul-25 02:32N 51°16' E 004°13'0 0.0
2015-Jul-25 01:32N 51°16' E 004°13'0 0.0
2015-Jul-25 00:32N 51°16' E 004°13'0 0.0
2015-Jul-24 23:32N 51°16' E 004°13'0 0.0
2015-Jul-24 22:29N 51°16' E 004°13'0 0.0
2015-Jul-24 21:32N 51°16' E 004°13'0 0.0
2015-Jul-24 20:32N 51°16' E 004°13'0 0.0
2015-Jul-24 19:32N 51°16' E 004°13'0 0.0
2015-Jul-24 18:32N 51°16' E 004°13'0 0.0
2015-Jul-24 17:32N 51°16' E 004°13'0 0.0
2015-Jul-24 16:32N 51°16' E 004°13'0 0.0
2015-Jul-24 15:32N 51°16' E 004°13'0 0.0
2015-Jul-24 14:32N 51°16' E 004°13'0 0.0
2015-Jul-24 13:32N 51°16' E 004°13'0 0.0
2015-Jul-24 12:32N 51°16' E 004°13'0 0.0
2015-Jul-24 11:32N 51°16' E 004°13'0 0.0
2015-Jul-24 10:32N 51°16' E 004°13'0 0.0
2015-Jul-24 09:32N 51°16' E 004°13'0 0.0
2015-Jul-24 08:32N 51°16' E 004°13'0 0.0
2015-Jul-24 07:32N 51°16' E 004°13'0 0.0
2015-Jul-24 06:32N 51°16' E 004°13'0 0.0
2015-Jul-24 05:32N 51°16' E 004°13'0 0.0
2015-Jul-24 04:32N 51°16' E 004°13'0 0.0
2015-Jul-24 03:32N 51°16' E 004°13'0 0.0
2015-Jul-24 02:32N 51°16' E 004°13'0 0.0
2015-Jul-24 01:32N 51°16' E 004°13'0 0.0
2015-Jul-24 00:32N 51°16' E 004°13'0 0.0
2015-Jul-23 23:32N 51°16' E 004°13'0 0.0
2015-Jul-23 22:32N 51°16' E 004°13'0 0.0
2015-Jul-23 21:32N 51°16' E 004°13'0 0.0
2015-Jul-23 20:32N 51°16' E 004°13'0 0.0
2015-Jul-23 19:32N 51°16' E 004°13'0 0.0
2015-Jul-23 18:32N 51°16' E 004°13'0 0.0
2015-Jul-23 17:32N 51°16' E 004°13'0 0.0
2015-Jul-23 16:32N 51°16' E 004°13'0 0.0
2015-Jul-23 15:32N 51°16' E 004°13'0 0.0
2015-Jul-23 14:32N 51°16' E 004°13'0 0.0
2015-Jul-23 13:32N 51°16' E 004°13'0 0.0
2015-Jul-23 12:32N 51°16' E 004°13'0 0.0
2015-Jul-23 11:29N 51°16' E 004°13'0 0.0
2015-Jul-23 10:32N 51°16' E 004°13'0 0.0
2015-Jul-23 09:32N 51°16' E 004°13'0 0.0
2015-Jul-23 08:32N 51°16' E 004°13'0 0.0
2015-Jul-23 07:32N 51°16' E 004°13'0 0.0
2015-Jul-23 06:32N 51°16' E 004°13'0 0.0
2015-Jul-23 05:32N 51°16' E 004°13'0 0.0
2015-Jul-23 04:32N 51°16' E 004°13'0 0.0
2015-Jul-23 03:32N 51°16' E 004°13'0 0.0
2015-Jul-23 02:32N 51°16' E 004°13'0 0.0
2015-Jul-23 01:32N 51°16' E 004°13'0 0.0
2015-Jul-23 00:32N 51°16' E 004°13'0 0.0
2015-Jul-22 23:32N 51°16' E 004°13'0 0.0
2015-Jul-22 22:32N 51°16' E 004°13'0 0.0
2015-Jul-22 21:32N 51°16' E 004°13'0 0.0
2015-Jul-22 20:32N 51°16' E 004°13'0 0.0
2015-Jul-22 19:32N 51°16' E 004°13'0 0.0
2015-Jul-22 18:32N 51°16' E 004°13'0 0.0
2015-Jul-22 17:32N 51°16' E 004°13'0 0.0
2015-Jul-22 16:32N 51°16' E 004°13'0 0.0
2015-Jul-22 15:32N 51°16' E 004°13'0 0.0
2015-Jul-22 14:32N 51°16' E 004°13'0 0.0
2015-Jul-22 13:34N 51°16' E 004°13'0 0.0
2015-Jul-22 12:33N 51°16' E 004°13'0 0.0
2015-Jul-22 11:33N 51°16' E 004°13'0 0.0
2015-Jul-22 10:33N 51°16' E 004°13'0 0.0
2015-Jul-22 09:30N 51°16' E 004°13'0 0.0
2015-Jul-22 08:33N 51°16' E 004°13'0 0.0
2015-Jul-22 07:33N 51°16' E 004°13'0 0.0
2015-Jul-22 06:33N 51°16' E 004°13'0 0.0
2015-Jul-22 05:33N 51°16' E 004°13'0 0.0
2015-Jul-22 04:33N 51°16' E 004°13'0 0.0
2015-Jul-22 03:33N 51°16' E 004°13'0 0.0
2015-Jul-22 02:33N 51°16' E 004°13'0 0.0
2015-Jul-22 01:33N 51°16' E 004°13'0 0.0
2015-Jul-22 00:33N 51°16' E 004°13'0 0.0
2015-Jul-21 23:33N 51°16' E 004°13'0 0.0
2015-Jul-21 22:33N 51°16' E 004°13'0 0.0
2015-Jul-21 21:33N 51°16' E 004°13'0 0.0
2015-Jul-21 20:33N 51°16' E 004°13'0 0.0
2015-Jul-21 19:33N 51°16' E 004°13'0 0.0
2015-Jul-21 18:33N 51°16' E 004°13'0 0.0
2015-Jul-21 17:33N 51°16' E 004°13'0 0.0
2015-Jul-21 16:33N 51°16' E 004°13'0 0.0
2015-Jul-21 15:30N 51°16' E 004°13'0 0.0
2015-Jul-21 14:30N 51°16' E 004°13'0 0.0
2015-Jul-21 13:33N 51°16' E 004°13'0 0.0
2015-Jul-21 12:30N 51°16' E 004°13'0 0.0
2015-Jul-21 11:33N 51°16' E 004°13'0 0.0
2015-Jul-21 10:33N 51°16' E 004°13'0 0.0
2015-Jul-21 09:33N 51°16' E 004°13'0 0.2
2015-Jul-21 08:33N 51°17' E 004°13'2 2.2
2015-Jul-21 07:33N 51°16' E 004°17'5 4.6
2015-Jul-21 06:33N 51°20' E 004°16'1110.6
2015-Jul-21 05:34N 51°26' E 004°01'1211.9
2015-Jul-21 04:34N 51°23' E 003°43'1110.8
2015-Jul-21 03:33N 51°25' E 003°26'1211.8
2015-Jul-21 02:32N 51°24' E 003°06'1211.8
2015-Jul-21 01:33N 51°22' E 002°48'7 7.5
2015-Jul-21 00:33N 51°22' E 002°36'7 6.6
2015-Jul-20 23:33N 51°21' E 002°26'8 8.1
2015-Jul-20 22:33N 51°16' E 002°15'1515.3
2015-Jul-20 21:33N 51°09' E 001°53'1514.8
2015-Jul-20 20:33N 51°00' E 001°34'  
Track history (hours):
 
Tides and Currents Weather Stations Pressure Air Temp Water Temp Dewpoint Dewpoint Depression Visibility Wind Speed Wind Dir Waves Ship Positions

Modern Express

Last reported at 2015-Jul-30 20:05 UTC. Time now 2015-Aug-02 08:19 UTC.
Position N 27°35' W 014°02'.

Length 164 m; beam 28 m.

Type: Cargo ship. MMSI: 356187000.

Date/timePositionNaut miles runAvg speedWind from/ knotsBaromVisibWave heightAir tempDewpointWater temp
2015-Jul-30 20:05N 27°35' W 014°02'815.3
2015-Jul-30 19:33N 27°42' W 013°57'1615.5
2015-Jul-30 18:33N 27°55' W 013°48'1615.7
2015-Jul-30 17:31N 28°10' W 013°40'1715.8
2015-Jul-30 16:28N 28°24' W 013°31'1516.6
2015-Jul-30 15:33N 28°38' W 013°23'1616.1
2015-Jul-30 14:33N 28°53' W 013°16'1515.2
2015-Jul-30 13:34N 29°06' W 013°09'1515.0
2015-Jul-30 12:33N 29°20' W 013°02'1515.2
2015-Jul-30 11:33N 29°35' W 012°58'1515.0
2015-Jul-30 10:33N 29°50' W 012°54'1714.9
2015-Jul-30 09:27N 30°06' W 012°50'1314.9
2015-Jul-30 08:33N 30°19' W 012°47'4615.4
2015-Jul-30 05:33N 31°03' W 012°31'36615.3
2015-Jul-29 05:33N 36°59' W 010°46'1515.3
2015-Jul-29 04:33N 37°14' W 010°46'1615.3
2015-Jul-29 03:32N 37°30' W 010°46'1515.2
2015-Jul-29 02:33N 37°45' W 010°44'1515.3
2015-Jul-29 01:33N 37°60' W 010°42'1515.0
2015-Jul-29 00:33N 38°15' W 010°41'1515.1
2015-Jul-28 23:33N 38°30' W 010°39'1515.1
2015-Jul-28 22:33N 38°45' W 010°38'1515.0
2015-Jul-28 21:34N 38°60' W 010°37'1515.1
2015-Jul-28 20:33N 39°15' W 010°36'1615.0
2015-Jul-28 19:28N 39°31' W 010°35'1415.1
2015-Jul-28 18:33N 39°45' W 010°34'1615.4
2015-Jul-28 17:32N 40°01' W 010°33'  
2015-Jul-26 08:17N 50°21' W 000°56'4516.3
2015-Jul-26 05:32N 50°33' E 000°12'1515.3
2015-Jul-26 04:33N 50°37' E 000°35'1515.0
2015-Jul-26 03:33N 50°46' E 000°54'1615.6
2015-Jul-26 02:33N 50°56' E 001°12'1717.1
2015-Jul-26 01:33N 51°07' E 001°33'1717.1
2015-Jul-26 00:33N 51°19' E 001°53'1312.5
2015-Jul-25 23:33N 51°21' E 002°12'1515.3
2015-Jul-25 22:33N 51°23' E 002°37'1312.8
2015-Jul-25 21:34N 51°25' E 002°57'1515.2
2015-Jul-25 20:33N 51°25' E 003°22'1212.4
2015-Jul-25 19:34N 51°26' E 003°41'10 9.6
2015-Jul-25 18:33N 51°22' E 003°56'8 7.7
2015-Jul-25 17:33N 51°22' E 004°08'9 9.0
2015-Jul-25 16:33N 51°17' E 004°19'2 1.8
2015-Jul-25 15:33N 51°16' E 004°17'2 2.2
2015-Jul-25 14:32N 51°16' E 004°13'0 0.0
2015-Jul-25 13:32N 51°16' E 004°13'0 0.0
2015-Jul-25 12:32N 51°16' E 004°13'0 0.0
2015-Jul-25 11:32N 51°16' E 004°13'0 0.0
2015-Jul-25 10:32N 51°16' E 004°13'0 0.0
2015-Jul-25 09:32N 51°16' E 004°13'0 0.0
2015-Jul-25 08:32N 51°16' E 004°13'0 0.0
2015-Jul-25 07:32N 51°16' E 004°13'0 0.0
2015-Jul-25 06:32N 51°16' E 004°13'0 0.0
2015-Jul-25 05:29N 51°16' E 004°13'0 0.0
2015-Jul-25 04:32N 51°16' E 004°13'0 0.0
2015-Jul-25 03:32N 51°16' E 004°13'0 0.0
2015-Jul-25 02:32N 51°16' E 004°13'0 0.0
2015-Jul-25 01:32N 51°16' E 004°13'0 0.0
2015-Jul-25 00:32N 51°16' E 004°13'0 0.0
2015-Jul-24 23:32N 51°16' E 004°13'0 0.0
2015-Jul-24 22:29N 51°16' E 004°13'0 0.0
2015-Jul-24 21:32N 51°16' E 004°13'0 0.0
2015-Jul-24 20:32N 51°16' E 004°13'0 0.0
2015-Jul-24 19:32N 51°16' E 004°13'0 0.0
2015-Jul-24 18:32N 51°16' E 004°13'0 0.0
2015-Jul-24 17:32N 51°16' E 004°13'0 0.0
2015-Jul-24 16:32N 51°16' E 004°13'0 0.0
2015-Jul-24 15:32N 51°16' E 004°13'0 0.0
2015-Jul-24 14:32N 51°16' E 004°13'0 0.0
2015-Jul-24 13:32N 51°16' E 004°13'0 0.0
2015-Jul-24 12:32N 51°16' E 004°13'0 0.0
2015-Jul-24 11:32N 51°16' E 004°13'0 0.0
2015-Jul-24 10:32N 51°16' E 004°13'0 0.0
2015-Jul-24 09:32N 51°16' E 004°13'0 0.0
2015-Jul-24 08:32N 51°16' E 004°13'0 0.0
2015-Jul-24 07:32N 51°16' E 004°13'0 0.0
2015-Jul-24 06:32N 51°16' E 004°13'0 0.0
2015-Jul-24 05:32N 51°16' E 004°13'0 0.0
2015-Jul-24 04:32N 51°16' E 004°13'0 0.0
2015-Jul-24 03:32N 51°16' E 004°13'0 0.0
2015-Jul-24 02:32N 51°16' E 004°13'0 0.0
2015-Jul-24 01:32N 51°16' E 004°13'0 0.0
2015-Jul-24 00:32N 51°16' E 004°13'0 0.0
2015-Jul-23 23:32N 51°16' E 004°13'0 0.0
2015-Jul-23 22:32N 51°16' E 004°13'0 0.0
2015-Jul-23 21:32N 51°16' E 004°13'0 0.0
2015-Jul-23 20:32N 51°16' E 004°13'0 0.0
2015-Jul-23 19:32N 51°16' E 004°13'0 0.0
2015-Jul-23 18:32N 51°16' E 004°13'0 0.0
2015-Jul-23 17:32N 51°16' E 004°13'0 0.0
2015-Jul-23 16:32N 51°16' E 004°13'0 0.0
2015-Jul-23 15:32N 51°16' E 004°13'0 0.0
2015-Jul-23 14:32N 51°16' E 004°13'0 0.0
2015-Jul-23 13:32N 51°16' E 004°13'0 0.0
2015-Jul-23 12:32N 51°16' E 004°13'0 0.0
2015-Jul-23 11:29N 51°16' E 004°13'0 0.0
2015-Jul-23 10:32N 51°16' E 004°13'0 0.0
2015-Jul-23 09:32N 51°16' E 004°13'0 0.0
2015-Jul-23 08:32N 51°16' E 004°13'0 0.0
2015-Jul-23 07:32N 51°16' E 004°13'0 0.0
2015-Jul-23 06:32N 51°16' E 004°13'0 0.0
2015-Jul-23 05:32N 51°16' E 004°13'0 0.0
2015-Jul-23 04:32N 51°16' E 004°13'0 0.0
2015-Jul-23 03:32N 51°16' E 004°13'0 0.0
2015-Jul-23 02:32N 51°16' E 004°13'0 0.0
2015-Jul-23 01:32N 51°16' E 004°13'0 0.0
2015-Jul-23 00:32N 51°16' E 004°13'0 0.0
2015-Jul-22 23:32N 51°16' E 004°13'0 0.0
2015-Jul-22 22:32N 51°16' E 004°13'0 0.0
2015-Jul-22 21:32N 51°16' E 004°13'0 0.0
2015-Jul-22 20:32N 51°16' E 004°13'0 0.0
2015-Jul-22 19:32N 51°16' E 004°13'0 0.0
2015-Jul-22 18:32N 51°16' E 004°13'0 0.0
2015-Jul-22 17:32N 51°16' E 004°13'0 0.0
2015-Jul-22 16:32N 51°16' E 004°13'0 0.0
2015-Jul-22 15:32N 51°16' E 004°13'0 0.0
2015-Jul-22 14:32N 51°16' E 004°13'0 0.0
2015-Jul-22 13:34N 51°16' E 004°13'0 0.0
2015-Jul-22 12:33N 51°16' E 004°13'0 0.0
2015-Jul-22 11:33N 51°16' E 004°13'0 0.0
2015-Jul-22 10:33N 51°16' E 004°13'0 0.0
2015-Jul-22 09:30N 51°16' E 004°13'0 0.0
2015-Jul-22 08:33N 51°16' E 004°13'0 0.0
2015-Jul-22 07:33N 51°16' E 004°13'0 0.0
2015-Jul-22 06:33N 51°16' E 004°13'0 0.0
2015-Jul-22 05:33N 51°16' E 004°13'0 0.0
2015-Jul-22 04:33N 51°16' E 004°13'0 0.0
2015-Jul-22 03:33N 51°16' E 004°13'0 0.0
2015-Jul-22 02:33N 51°16' E 004°13'0 0.0
2015-Jul-22 01:33N 51°16' E 004°13'0 0.0
2015-Jul-22 00:33N 51°16' E 004°13'0 0.0
2015-Jul-21 23:33N 51°16' E 004°13'0 0.0
2015-Jul-21 22:33N 51°16' E 004°13'0 0.0
2015-Jul-21 21:33N 51°16' E 004°13'0 0.0
2015-Jul-21 20:33N 51°16' E 004°13'0 0.0
2015-Jul-21 19:33N 51°16' E 004°13'0 0.0
2015-Jul-21 18:33N 51°16' E 004°13'0 0.0
2015-Jul-21 17:33N 51°16' E 004°13'0 0.0
2015-Jul-21 16:33N 51°16' E 004°13'0 0.0
2015-Jul-21 15:30N 51°16' E 004°13'0 0.0
2015-Jul-21 14:30N 51°16' E 004°13'0 0.0
2015-Jul-21 13:33N 51°16' E 004°13'0 0.0
2015-Jul-21 12:30N 51°16' E 004°13'0 0.0
2015-Jul-21 11:33N 51°16' E 004°13'0 0.0
2015-Jul-21 10:33N 51°16' E 004°13'0 0.0
2015-Jul-21 09:33N 51°16' E 004°13'0 0.2
2015-Jul-21 08:33N 51°17' E 004°13'2 2.2
2015-Jul-21 07:33N 51°16' E 004°17'5 4.6
2015-Jul-21 06:33N 51°20' E 004°16'1110.6
2015-Jul-21 05:34N 51°26' E 004°01'1211.9
2015-Jul-21 04:34N 51°23' E 003°43'1110.8
2015-Jul-21 03:33N 51°25' E 003°26'1211.8
2015-Jul-21 02:32N 51°24' E 003°06'1211.8
2015-Jul-21 01:33N 51°22' E 002°48'7 7.5
2015-Jul-21 00:33N 51°22' E 002°36'7 6.6
2015-Jul-20 23:33N 51°21' E 002°26'8 8.1
2015-Jul-20 22:33N 51°16' E 002°15'1515.3
2015-Jul-20 21:33N 51°09' E 001°53'1514.8
2015-Jul-20 20:33N 51°00' E 001°34'  

Dump ship's entire track history